createdAt,value
2017-03-04T00:00:04.275Z,991.93
2017-03-04T00:00:14.962Z,991.89
2017-03-04T00:00:24.972Z,991.93
2017-03-04T00:00:34.699Z,991.88
2017-03-04T00:00:44.664Z,991.88
2017-03-04T00:00:54.668Z,991.86
2017-03-04T00:01:04.654Z,991.88
2017-03-04T00:01:14.659Z,991.89
2017-03-04T00:01:24.644Z,991.89
2017-03-04T00:01:34.645Z,991.9
2017-03-04T00:01:44.628Z,991.89
2017-03-04T00:01:54.638Z,991.87
2017-03-04T00:02:04.631Z,991.84
2017-03-04T00:02:14.613Z,991.87
2017-03-04T00:02:24.922Z,991.87
2017-03-04T00:02:34.639Z,991.88
2017-03-04T00:02:44.605Z,991.85
2017-03-04T00:02:54.450Z,991.9
2017-03-04T00:03:04.853Z,991.89
2017-03-04T00:03:14.571Z,991.89
2017-03-04T00:03:24.578Z,991.85
2017-03-04T00:03:34.854Z,991.86
2017-03-04T00:03:44.140Z,991.87
2017-03-04T00:03:54.545Z,991.85
2017-03-04T00:04:04.540Z,991.86
2017-03-04T00:04:15.099Z,991.9
2017-03-04T00:04:24.539Z,991.85
2017-03-04T00:04:34.520Z,991.86
2017-03-04T00:04:44.518Z,991.86
2017-03-04T00:04:54.517Z,991.84
2017-03-04T00:05:04.088Z,991.87
2017-03-04T00:05:14.499Z,991.87
2017-03-04T00:05:24.503Z,991.85
2017-03-04T00:05:34.497Z,991.87
2017-03-04T00:05:44.482Z,991.85
2017-03-04T00:05:54.476Z,991.88
2017-03-04T00:06:04.476Z,991.87
2017-03-04T00:06:14.750Z,991.89
2017-03-04T00:06:24.455Z,991.86
2017-03-04T00:06:34.456Z,991.86
2017-03-04T00:06:44.447Z,991.84
2017-03-04T00:06:54.442Z,991.85
2017-03-04T00:07:04.430Z,991.87
2017-03-04T00:07:14.423Z,991.84
2017-03-04T00:07:24.670Z,991.86
2017-03-04T00:07:34.006Z,991.83
2017-03-04T00:07:44.423Z,991.83
2017-03-04T00:07:54.397Z,991.87
2017-03-04T00:08:04.404Z,991.84
2017-03-04T00:08:14.387Z,991.86
2017-03-04T00:08:24.388Z,991.88
2017-03-04T00:08:33.957Z,991.88
2017-03-04T00:08:43.963Z,991.84
2017-03-04T00:08:54.378Z,991.84
2017-03-04T00:09:04.366Z,991.9
2017-03-04T00:09:14.363Z,991.83
2017-03-04T00:09:24.346Z,991.82
2017-03-04T00:09:34.343Z,991.82
2017-03-04T00:09:44.337Z,991.84
2017-03-04T00:09:54.598Z,991.83
2017-03-04T00:10:04.324Z,991.83
2017-03-04T00:10:14.601Z,991.84
2017-03-04T00:10:24.614Z,991.85
2017-03-04T00:10:34.589Z,991.82
2017-03-04T00:10:44.291Z,991.9
2017-03-04T00:10:54.311Z,991.87
2017-03-04T00:11:03.897Z,991.87
2017-03-04T00:11:14.285Z,991.87
2017-03-04T00:11:24.284Z,991.86
2017-03-04T00:11:34.277Z,991.92
2017-03-04T00:11:44.255Z,991.89
2017-03-04T00:11:54.525Z,991.84
2017-03-04T00:12:03.830Z,991.88
2017-03-04T00:12:14.247Z,991.88
2017-03-04T00:12:24.261Z,991.91
2017-03-04T00:12:34.240Z,991.87
2017-03-04T00:12:44.215Z,991.89
2017-03-04T00:12:54.522Z,991.82
2017-03-04T00:13:04.211Z,991.92
2017-03-04T00:13:14.209Z,991.87
2017-03-04T00:13:24.204Z,991.87
2017-03-04T00:13:34.187Z,991.86
2017-03-04T00:13:44.195Z,991.92
2017-03-04T00:13:54.188Z,991.86
2017-03-04T00:14:04.175Z,991.81
2017-03-04T00:14:14.180Z,991.83
2017-03-04T00:14:24.161Z,991.86
2017-03-04T00:14:34.165Z,991.83
2017-03-04T00:14:44.142Z,991.84
2017-03-04T00:14:54.142Z,991.89
2017-03-04T00:15:04.154Z,991.81
2017-03-04T00:15:14.139Z,991.85
2017-03-04T00:15:24.124Z,991.83
2017-03-04T00:15:34.383Z,991.83
2017-03-04T00:15:44.110Z,991.87
2017-03-04T00:15:54.106Z,991.84
2017-03-04T00:16:04.110Z,991.89
2017-03-04T00:16:14.096Z,991.83
2017-03-04T00:16:24.103Z,991.8
2017-03-04T00:16:34.078Z,991.83
2017-03-04T00:16:44.388Z,991.81
2017-03-04T00:16:54.076Z,991.79
2017-03-04T00:17:04.353Z,991.8
2017-03-04T00:17:14.089Z,991.81
2017-03-04T00:17:24.049Z,991.85
2017-03-04T00:17:34.049Z,991.77
2017-03-04T00:17:44.045Z,991.78
2017-03-04T00:17:54.029Z,991.8
2017-03-04T00:18:04.027Z,991.82
2017-03-04T00:18:13.614Z,991.83
2017-03-04T00:18:24.011Z,991.81
2017-03-04T00:18:34.000Z,991.79
2017-03-04T00:18:44.000Z,991.74
2017-03-04T00:18:54.005Z,991.76
2017-03-04T00:19:03.983Z,991.78
2017-03-04T00:19:13.989Z,991.75
2017-03-04T00:19:23.554Z,991.72
2017-03-04T00:19:33.967Z,991.77
2017-03-04T00:19:43.965Z,991.8
2017-03-04T00:19:54.237Z,991.79
2017-03-04T00:20:03.962Z,991.75
2017-03-04T00:20:13.944Z,991.76
2017-03-04T00:20:23.951Z,991.73
2017-03-04T00:20:33.929Z,991.76
2017-03-04T00:20:43.922Z,991.76
2017-03-04T00:20:53.509Z,991.77
2017-03-04T00:21:03.910Z,991.74
2017-03-04T00:21:13.923Z,991.78
2017-03-04T00:21:24.211Z,991.72
2017-03-04T00:21:33.884Z,991.71
2017-03-04T00:21:43.880Z,991.74
2017-03-04T00:21:53.883Z,991.74
2017-03-04T00:22:03.868Z,991.68
2017-03-04T00:22:13.881Z,991.7
2017-03-04T00:22:24.111Z,991.73
2017-03-04T00:22:33.850Z,991.7
2017-03-04T00:22:43.857Z,991.72
2017-03-04T00:22:53.852Z,991.71
2017-03-04T00:23:03.837Z,991.78
2017-03-04T00:23:13.833Z,991.7
2017-03-04T00:23:23.828Z,991.74
2017-03-04T00:23:33.827Z,991.75
2017-03-04T00:23:43.821Z,991.75
2017-03-04T00:23:53.803Z,991.76
2017-03-04T00:24:03.802Z,991.7
2017-03-04T00:24:13.804Z,991.69
2017-03-04T00:24:23.801Z,991.72
2017-03-04T00:24:33.783Z,991.73
2017-03-04T00:24:43.790Z,991.74
2017-03-04T00:24:53.773Z,991.73
2017-03-04T00:25:03.764Z,991.72
2017-03-04T00:25:13.766Z,991.74
2017-03-04T00:25:23.754Z,991.74
2017-03-04T00:25:33.739Z,991.76
2017-03-04T00:25:43.735Z,991.72
2017-03-04T00:25:53.759Z,991.76
2017-03-04T00:26:03.727Z,991.75
2017-03-04T00:26:13.723Z,991.75
2017-03-04T00:26:23.715Z,991.69
2017-03-04T00:26:33.717Z,991.71
2017-03-04T00:26:43.697Z,991.76
2017-03-04T00:26:53.693Z,991.73
2017-03-04T00:27:03.687Z,991.77
2017-03-04T00:27:13.707Z,991.78
2017-03-04T00:27:23.937Z,991.79
2017-03-04T00:27:33.957Z,991.8
2017-03-04T00:27:43.250Z,991.82
2017-03-04T00:27:53.669Z,991.77
2017-03-04T00:28:03.648Z,991.77
2017-03-04T00:28:13.658Z,991.76
2017-03-04T00:28:23.638Z,991.74
2017-03-04T00:28:33.643Z,991.77
2017-03-04T00:28:43.623Z,991.76
2017-03-04T00:28:53.648Z,991.79
2017-03-04T00:29:03.195Z,991.81
2017-03-04T00:29:13.605Z,991.75
2017-03-04T00:29:23.599Z,991.8
2017-03-04T00:29:33.609Z,991.76
2017-03-04T00:29:43.592Z,991.75
2017-03-04T00:29:53.581Z,991.78
2017-03-04T00:30:02.762Z,991.75
2017-03-04T00:30:13.570Z,991.77
2017-03-04T00:30:23.572Z,991.78
2017-03-04T00:30:33.566Z,991.75
2017-03-04T00:30:43.837Z,991.72
2017-03-04T00:30:53.553Z,991.77
2017-03-04T00:31:02.700Z,991.73
2017-03-04T00:31:13.551Z,991.81
2017-03-04T00:31:23.520Z,991.79
2017-03-04T00:31:33.538Z,991.73
2017-03-04T00:31:43.546Z,991.75
2017-03-04T00:31:53.501Z,991.76
2017-03-04T00:32:03.793Z,991.77
2017-03-04T00:32:13.077Z,991.76
2017-03-04T00:32:23.347Z,991.73
2017-03-04T00:32:33.338Z,991.76
2017-03-04T00:32:43.767Z,991.71
2017-03-04T00:32:53.468Z,991.7
2017-03-04T00:33:03.470Z,991.74
2017-03-04T00:33:13.461Z,991.68
2017-03-04T00:33:23.450Z,991.7
2017-03-04T00:33:33.448Z,991.66
2017-03-04T00:33:43.439Z,991.7
2017-03-04T00:33:53.443Z,991.73
2017-03-04T00:34:03.020Z,991.69
2017-03-04T00:34:13.451Z,991.66
2017-03-04T00:34:22.996Z,991.67
2017-03-04T00:34:33.427Z,991.64
2017-03-04T00:34:43.397Z,991.72
2017-03-04T00:34:53.397Z,991.7
2017-03-04T00:35:03.404Z,991.7
2017-03-04T00:35:13.381Z,991.67
2017-03-04T00:35:23.382Z,991.62
2017-03-04T00:35:33.399Z,991.66
2017-03-04T00:35:43.372Z,991.65
2017-03-04T00:35:53.372Z,991.62
2017-03-04T00:36:02.947Z,991.63
2017-03-04T00:36:13.373Z,991.64
2017-03-04T00:36:23.345Z,991.64
2017-03-04T00:36:33.345Z,991.66
2017-03-04T00:36:43.328Z,991.62
2017-03-04T00:36:53.320Z,991.62
2017-03-04T00:37:02.920Z,991.61
2017-03-04T00:37:13.321Z,991.61
2017-03-04T00:37:22.953Z,991.58
2017-03-04T00:37:33.310Z,991.6
2017-03-04T00:37:43.284Z,991.57
2017-03-04T00:37:53.286Z,991.62
2017-03-04T00:38:03.277Z,991.6
2017-03-04T00:38:13.274Z,991.61
2017-03-04T00:38:23.275Z,991.59
2017-03-04T00:38:32.844Z,991.56
2017-03-04T00:38:43.254Z,991.61
2017-03-04T00:38:53.542Z,991.57
2017-03-04T00:39:03.239Z,991.59
2017-03-04T00:39:13.253Z,991.59
2017-03-04T00:39:23.226Z,991.61
2017-03-04T00:39:33.234Z,991.54
2017-03-04T00:39:43.516Z,991.54
2017-03-04T00:39:53.221Z,991.57
2017-03-04T00:40:03.215Z,991.56
2017-03-04T00:40:13.479Z,991.53
2017-03-04T00:40:23.211Z,991.56
2017-03-04T00:40:33.194Z,991.55
2017-03-04T00:40:43.176Z,991.55
2017-03-04T00:40:53.188Z,991.51
2017-03-04T00:41:03.174Z,991.55
2017-03-04T00:41:13.163Z,991.54
2017-03-04T00:41:23.162Z,991.54
2017-03-04T00:41:33.444Z,991.54
2017-03-04T00:41:43.159Z,991.58
2017-03-04T00:41:53.138Z,991.54
2017-03-04T00:42:03.126Z,991.55
2017-03-04T00:42:12.729Z,991.56
2017-03-04T00:42:22.695Z,991.59
2017-03-04T00:42:33.122Z,991.53
2017-03-04T00:42:43.104Z,991.55
2017-03-04T00:42:53.097Z,991.53
2017-03-04T00:43:03.381Z,991.52
2017-03-04T00:43:13.367Z,991.54
2017-03-04T00:43:23.075Z,991.56
2017-03-04T00:43:33.074Z,991.53
2017-03-04T00:43:43.076Z,991.56
2017-03-04T00:43:52.646Z,991.57
2017-03-04T00:44:02.645Z,991.53
2017-03-04T00:44:13.050Z,991.56
2017-03-04T00:44:23.056Z,991.59
2017-03-04T00:44:33.038Z,991.58
2017-03-04T00:44:43.046Z,991.52
2017-03-04T00:44:53.024Z,991.56
2017-03-04T00:45:02.746Z,991.57
2017-03-04T00:45:13.020Z,991.55
2017-03-04T00:45:23.011Z,991.55
2017-03-04T00:45:33.282Z,991.52
2017-03-04T00:45:42.995Z,991.53
2017-03-04T00:45:53.274Z,991.55
2017-03-04T00:46:03.260Z,991.51
2017-03-04T00:46:12.975Z,991.54
2017-03-04T00:46:22.961Z,991.56
2017-03-04T00:46:32.965Z,991.54
2017-03-04T00:46:42.964Z,991.53
2017-03-04T00:46:52.960Z,991.57
2017-03-04T00:47:02.948Z,991.52
2017-03-04T00:47:12.940Z,991.51
2017-03-04T00:47:22.665Z,991.49
2017-03-04T00:47:32.931Z,991.5
2017-03-04T00:47:42.922Z,991.54
2017-03-04T00:47:52.928Z,991.52
2017-03-04T00:48:02.906Z,991.49
2017-03-04T00:48:12.904Z,991.51
2017-03-04T00:48:22.903Z,991.53
2017-03-04T00:48:32.885Z,991.51
2017-03-04T00:48:42.882Z,991.5
2017-03-04T00:48:52.890Z,991.46
2017-03-04T00:49:02.861Z,991.47
2017-03-04T00:49:13.415Z,991.5
2017-03-04T00:49:22.852Z,991.5
2017-03-04T00:49:32.851Z,991.45
2017-03-04T00:49:42.847Z,991.51
2017-03-04T00:49:52.849Z,991.48
2017-03-04T00:50:02.834Z,991.5
2017-03-04T00:50:12.820Z,991.46
2017-03-04T00:50:22.829Z,991.45
2017-03-04T00:50:32.813Z,991.48
2017-03-04T00:50:42.805Z,991.44
2017-03-04T00:50:52.814Z,991.42
2017-03-04T00:51:02.812Z,991.46
2017-03-04T00:51:12.794Z,991.46
2017-03-04T00:51:22.783Z,991.49
2017-03-04T00:51:33.062Z,991.41
2017-03-04T00:51:42.779Z,991.4
2017-03-04T00:51:52.762Z,991.45
2017-03-04T00:52:02.768Z,991.41
2017-03-04T00:52:12.753Z,991.45
2017-03-04T00:52:22.989Z,991.45
2017-03-04T00:52:32.736Z,991.43
2017-03-04T00:52:42.761Z,991.42
2017-03-04T00:52:52.306Z,991.43
2017-03-04T00:53:02.734Z,991.45
2017-03-04T00:53:12.746Z,991.42
2017-03-04T00:53:22.723Z,991.43
2017-03-04T00:53:32.701Z,991.45
2017-03-04T00:53:42.696Z,991.43
2017-03-04T00:53:52.690Z,991.39
2017-03-04T00:54:02.684Z,991.42
2017-03-04T00:54:12.673Z,991.39
2017-03-04T00:54:22.957Z,991.47
2017-03-04T00:54:32.659Z,991.39
2017-03-04T00:54:42.667Z,991.4
2017-03-04T00:54:52.653Z,991.43
2017-03-04T00:55:02.264Z,991.37
2017-03-04T00:55:12.646Z,991.41
2017-03-04T00:55:22.635Z,991.41
2017-03-04T00:55:32.636Z,991.43
2017-03-04T00:55:42.211Z,991.43
2017-03-04T00:55:52.614Z,991.41
2017-03-04T00:56:02.190Z,991.44
2017-03-04T00:56:12.610Z,991.41
2017-03-04T00:56:22.603Z,991.46
2017-03-04T00:56:32.607Z,991.41
2017-03-04T00:56:42.584Z,991.42
2017-03-04T00:56:52.156Z,991.39
2017-03-04T00:57:02.570Z,991.41
2017-03-04T00:57:12.561Z,991.41
2017-03-04T00:57:22.384Z,991.42
2017-03-04T00:57:32.551Z,991.4
2017-03-04T00:57:42.543Z,991.44
2017-03-04T00:57:52.134Z,991.42
2017-03-04T00:58:02.534Z,991.43
2017-03-04T00:58:12.542Z,991.5
2017-03-04T00:58:22.535Z,991.45
2017-03-04T00:58:32.515Z,991.43
2017-03-04T00:58:42.812Z,991.4
2017-03-04T00:58:52.511Z,991.38
2017-03-04T00:59:02.084Z,991.43
2017-03-04T00:59:12.775Z,991.38
2017-03-04T00:59:22.504Z,991.42
2017-03-04T00:59:32.478Z,991.42
2017-03-04T00:59:42.754Z,991.4
2017-03-04T00:59:51.626Z,991.38
2017-03-04T01:00:02.046Z,991.44
2017-03-04T01:00:12.483Z,991.43
2017-03-04T01:00:22.462Z,991.4
2017-03-04T01:00:32.441Z,991.42
2017-03-04T01:00:42.433Z,991.45
2017-03-04T01:00:52.448Z,991.45
2017-03-04T01:01:02.440Z,991.4
2017-03-04T01:01:12.434Z,991.41
2017-03-04T01:01:22.429Z,991.38
2017-03-04T01:01:32.408Z,991.38
2017-03-04T01:01:42.669Z,991.42
2017-03-04T01:01:52.388Z,991.38
2017-03-04T01:02:01.968Z,991.4
2017-03-04T01:02:12.396Z,991.41
2017-03-04T01:02:22.673Z,991.4
2017-03-04T01:02:32.386Z,991.36
2017-03-04T01:02:42.358Z,991.38
2017-03-04T01:02:52.382Z,991.37
2017-03-04T01:03:02.355Z,991.38
2017-03-04T01:03:12.332Z,991.42
2017-03-04T01:03:22.341Z,991.4
2017-03-04T01:03:32.332Z,991.38
2017-03-04T01:03:42.325Z,991.36
2017-03-04T01:03:52.611Z,991.39
2017-03-04T01:04:02.311Z,991.4
2017-03-04T01:04:12.302Z,991.39
2017-03-04T01:04:22.321Z,991.39
2017-03-04T01:04:32.302Z,991.37
2017-03-04T01:04:41.869Z,991.37
2017-03-04T01:04:52.271Z,991.37
2017-03-04T01:05:02.296Z,991.35
2017-03-04T01:05:12.278Z,991.36
2017-03-04T01:05:22.273Z,991.37
2017-03-04T01:05:32.252Z,991.34
2017-03-04T01:05:42.260Z,991.31
2017-03-04T01:05:52.240Z,991.32
2017-03-04T01:06:02.518Z,991.36
2017-03-04T01:06:12.230Z,991.38
2017-03-04T01:06:22.223Z,991.38
2017-03-04T01:06:32.209Z,991.33
2017-03-04T01:06:42.209Z,991.24
2017-03-04T01:06:52.202Z,991.31
2017-03-04T01:07:02.205Z,991.33
2017-03-04T01:07:12.218Z,991.36
2017-03-04T01:07:22.471Z,991.34
2017-03-04T01:07:31.760Z,991.31
2017-03-04T01:07:42.178Z,991.3
2017-03-04T01:07:51.750Z,991.41
2017-03-04T01:08:01.899Z,991.31
2017-03-04T01:08:12.433Z,991.32
2017-03-04T01:08:22.162Z,991.32
2017-03-04T01:08:32.178Z,991.31
2017-03-04T01:08:42.142Z,991.34
2017-03-04T01:08:51.723Z,991.25
2017-03-04T01:09:02.126Z,991.26
2017-03-04T01:09:12.399Z,991.29
2017-03-04T01:09:22.121Z,991.27
2017-03-04T01:09:32.102Z,991.34
2017-03-04T01:09:42.101Z,991.3
2017-03-04T01:09:52.093Z,991.31
2017-03-04T01:10:02.086Z,991.26
2017-03-04T01:10:12.079Z,991.27
2017-03-04T01:10:22.080Z,991.23
2017-03-04T01:10:32.069Z,991.23
2017-03-04T01:10:42.062Z,991.25
2017-03-04T01:10:52.059Z,991.24
2017-03-04T01:11:02.052Z,991.25
2017-03-04T01:11:11.631Z,991.26
2017-03-04T01:11:22.031Z,991.22
2017-03-04T01:11:32.027Z,991.24
2017-03-04T01:11:42.029Z,991.24
2017-03-04T01:11:52.016Z,991.27
2017-03-04T01:12:01.595Z,991.23
2017-03-04T01:12:12.285Z,991.24
2017-03-04T01:12:22.263Z,991.27
2017-03-04T01:12:31.994Z,991.25
2017-03-04T01:12:41.577Z,991.22
2017-03-04T01:12:51.981Z,991.25
2017-03-04T01:13:02.279Z,991.22
2017-03-04T01:13:11.969Z,991.28
2017-03-04T01:13:21.964Z,991.24
2017-03-04T01:13:31.965Z,991.22
2017-03-04T01:13:41.941Z,991.25
2017-03-04T01:13:51.530Z,991.25
2017-03-04T01:14:01.942Z,991.25
2017-03-04T01:14:11.923Z,991.26
2017-03-04T01:14:22.194Z,991.24
2017-03-04T01:14:32.208Z,991.25
2017-03-04T01:14:41.928Z,991.24
2017-03-04T01:14:51.916Z,991.28
2017-03-04T01:15:01.914Z,991.25
2017-03-04T01:15:11.901Z,991.25
2017-03-04T01:15:21.888Z,991.24
2017-03-04T01:15:31.889Z,991.21
2017-03-04T01:15:41.455Z,991.22
2017-03-04T01:15:51.871Z,991.26
2017-03-04T01:16:01.868Z,991.22
2017-03-04T01:16:11.875Z,991.25
2017-03-04T01:16:21.867Z,991.2
2017-03-04T01:16:31.435Z,991.19
2017-03-04T01:16:41.837Z,991.21
2017-03-04T01:16:51.836Z,991.21
2017-03-04T01:17:01.824Z,991.18
2017-03-04T01:17:11.827Z,991.23
2017-03-04T01:17:22.335Z,991.19
2017-03-04T01:17:31.809Z,991.2
2017-03-04T01:17:41.819Z,991.18
2017-03-04T01:17:51.789Z,991.19
2017-03-04T01:18:01.783Z,991.18
2017-03-04T01:18:11.784Z,991.19
2017-03-04T01:18:21.783Z,991.15
2017-03-04T01:18:31.778Z,991.18
2017-03-04T01:18:41.779Z,991.23
2017-03-04T01:18:51.753Z,991.22
2017-03-04T01:19:01.333Z,991.17
2017-03-04T01:19:11.744Z,991.22
2017-03-04T01:19:21.734Z,991.21
2017-03-04T01:19:31.735Z,991.15
2017-03-04T01:19:41.725Z,991.2
2017-03-04T01:19:51.721Z,991.19
2017-03-04T01:20:01.724Z,991.18
2017-03-04T01:20:11.706Z,991.2
2017-03-04T01:20:21.724Z,991.17
2017-03-04T01:20:31.688Z,991.2
2017-03-04T01:20:41.962Z,991.23
2017-03-04T01:20:51.682Z,991.24
2017-03-04T01:21:01.689Z,991.2
2017-03-04T01:21:11.671Z,991.2
2017-03-04T01:21:21.660Z,991.19
2017-03-04T01:21:31.647Z,991.21
2017-03-04T01:21:41.663Z,991.19
2017-03-04T01:21:51.242Z,991.16
2017-03-04T01:22:01.950Z,991.2
2017-03-04T01:22:11.628Z,991.17
2017-03-04T01:22:21.628Z,991.17
2017-03-04T01:22:31.634Z,991.18
2017-03-04T01:22:41.621Z,991.25
2017-03-04T01:22:51.600Z,991.18
2017-03-04T01:23:01.599Z,991.19
2017-03-04T01:23:11.599Z,991.22
2017-03-04T01:23:21.166Z,991.17
2017-03-04T01:23:31.586Z,991.13
2017-03-04T01:23:41.584Z,991.17
2017-03-04T01:23:51.571Z,991.23
2017-03-04T01:24:01.563Z,991.12
2017-03-04T01:24:11.278Z,991.17
2017-03-04T01:24:21.551Z,991.19
2017-03-04T01:24:31.831Z,991.11
2017-03-04T01:24:41.548Z,991.08
2017-03-04T01:24:51.548Z,991.14
2017-03-04T01:25:01.797Z,991.13
2017-03-04T01:25:11.529Z,991.13
2017-03-04T01:25:21.514Z,991.15
2017-03-04T01:25:31.508Z,991.13
2017-03-04T01:25:41.521Z,991.06
2017-03-04T01:25:51.494Z,991.12
2017-03-04T01:26:01.487Z,991.07
2017-03-04T01:26:11.484Z,991.07
2017-03-04T01:26:21.061Z,991.09
2017-03-04T01:26:31.479Z,991.09
2017-03-04T01:26:41.474Z,991.08
2017-03-04T01:26:51.453Z,991.07
2017-03-04T01:27:01.451Z,991.06
2017-03-04T01:27:11.443Z,991.11
2017-03-04T01:27:21.022Z,991.09
2017-03-04T01:27:31.436Z,991.08
2017-03-04T01:27:41.446Z,991.11
2017-03-04T01:27:51.418Z,991.1
2017-03-04T01:28:01.440Z,991.08
2017-03-04T01:28:11.428Z,991.11
2017-03-04T01:28:21.397Z,991.11
2017-03-04T01:28:31.394Z,991.09
2017-03-04T01:28:41.403Z,991.08
2017-03-04T01:28:51.394Z,991.09
2017-03-04T01:29:01.389Z,991.05
2017-03-04T01:29:11.370Z,991.09
2017-03-04T01:29:21.360Z,991.08
2017-03-04T01:29:31.632Z,991.04
2017-03-04T01:29:41.350Z,991.12
2017-03-04T01:29:51.352Z,991.12
2017-03-04T01:30:01.341Z,991.08
2017-03-04T01:30:11.341Z,991.14
2017-03-04T01:30:21.325Z,991.12
2017-03-04T01:30:31.326Z,991.11
2017-03-04T01:30:41.310Z,991.08
2017-03-04T01:30:51.314Z,991.11
2017-03-04T01:31:01.296Z,991.09
2017-03-04T01:31:11.299Z,991.08
2017-03-04T01:31:21.300Z,991.11
2017-03-04T01:31:31.285Z,991.1
2017-03-04T01:31:41.277Z,991.16
2017-03-04T01:31:50.868Z,991.13
2017-03-04T01:32:01.264Z,991.12
2017-03-04T01:32:11.253Z,991.11
2017-03-04T01:32:21.498Z,991.11
2017-03-04T01:32:31.237Z,991.16
2017-03-04T01:32:41.544Z,991.14
2017-03-04T01:32:51.238Z,991.13
2017-03-04T01:33:01.223Z,991.14
2017-03-04T01:33:11.229Z,991.16
2017-03-04T01:33:20.795Z,991.12
2017-03-04T01:33:31.214Z,991.16
2017-03-04T01:33:41.210Z,991.12
2017-03-04T01:33:51.195Z,991.12
2017-03-04T01:34:01.184Z,991.1
2017-03-04T01:34:11.184Z,991.11
2017-03-04T01:34:21.182Z,991.12
2017-03-04T01:34:31.180Z,991.12
2017-03-04T01:34:41.170Z,991.1
2017-03-04T01:34:51.165Z,991.11
2017-03-04T01:35:01.152Z,991.11
2017-03-04T01:35:11.156Z,991.1
2017-03-04T01:35:21.427Z,991.11
2017-03-04T01:35:31.127Z,991.09
2017-03-04T01:35:41.122Z,991.11
2017-03-04T01:35:51.125Z,991.08
2017-03-04T01:36:01.122Z,991.09
2017-03-04T01:36:11.117Z,991.11
2017-03-04T01:36:21.099Z,991.13
2017-03-04T01:36:31.100Z,991.11
2017-03-04T01:36:41.086Z,991.09
2017-03-04T01:36:51.087Z,991.08
2017-03-04T01:37:00.943Z,991.09
2017-03-04T01:37:11.075Z,991.04
2017-03-04T01:37:21.061Z,991.1
2017-03-04T01:37:31.062Z,991.1
2017-03-04T01:37:41.054Z,991.12
2017-03-04T01:37:51.060Z,991.09
2017-03-04T01:38:01.331Z,991.14
2017-03-04T01:38:11.034Z,991.14
2017-03-04T01:38:21.040Z,991.12
2017-03-04T01:38:31.031Z,991.08
2017-03-04T01:38:41.017Z,991.07
2017-03-04T01:38:51.008Z,991.09
2017-03-04T01:39:01.018Z,991.13
2017-03-04T01:39:10.990Z,991.11
2017-03-04T01:39:20.576Z,991.11
2017-03-04T01:39:30.981Z,991.18
2017-03-04T01:39:40.979Z,991.12
2017-03-04T01:39:50.968Z,991.11
2017-03-04T01:40:01.253Z,991.11
2017-03-04T01:40:10.963Z,991.13
2017-03-04T01:40:20.532Z,991.16
2017-03-04T01:40:30.945Z,991.16
2017-03-04T01:40:40.934Z,991.12
2017-03-04T01:40:50.939Z,991.11
2017-03-04T01:41:00.512Z,991.13
2017-03-04T01:41:10.502Z,991.13
2017-03-04T01:41:20.493Z,991.13
2017-03-04T01:41:30.902Z,991.11
2017-03-04T01:41:40.911Z,991.12
2017-03-04T01:41:50.477Z,991.16
2017-03-04T01:42:00.890Z,991.16
2017-03-04T01:42:10.893Z,991.14
2017-03-04T01:42:20.469Z,991.14
2017-03-04T01:42:30.886Z,991.12
2017-03-04T01:42:40.860Z,991.1
2017-03-04T01:42:50.856Z,991.1
2017-03-04T01:43:00.431Z,991.14
2017-03-04T01:43:10.851Z,991.17
2017-03-04T01:43:20.427Z,991.12
2017-03-04T01:43:30.836Z,991.16
2017-03-04T01:43:40.819Z,991.15
2017-03-04T01:43:50.836Z,991.12
2017-03-04T01:44:00.391Z,991.12
2017-03-04T01:44:10.810Z,991.09
2017-03-04T01:44:20.377Z,991.12
2017-03-04T01:44:30.814Z,991.14
2017-03-04T01:44:40.800Z,991.09
2017-03-04T01:44:50.785Z,991.08
2017-03-04T01:45:00.800Z,991.09
2017-03-04T01:45:10.778Z,991.14
2017-03-04T01:45:20.348Z,991.11
2017-03-04T01:45:30.752Z,991.08
2017-03-04T01:45:41.023Z,991.11
2017-03-04T01:45:50.745Z,991.1
2017-03-04T01:46:00.337Z,991.08
2017-03-04T01:46:10.745Z,991.1
2017-03-04T01:46:20.733Z,991.14
2017-03-04T01:46:30.736Z,991.11
2017-03-04T01:46:40.726Z,991.14
2017-03-04T01:46:51.015Z,991.13
2017-03-04T01:47:00.700Z,991.11
2017-03-04T01:47:10.693Z,991.09
2017-03-04T01:47:20.697Z,991.11
2017-03-04T01:47:30.698Z,991.08
2017-03-04T01:47:40.684Z,991.08
2017-03-04T01:47:50.675Z,991.12
2017-03-04T01:48:00.670Z,991.1
2017-03-04T01:48:10.659Z,991.09
2017-03-04T01:48:20.668Z,991.07
2017-03-04T01:48:30.645Z,991.17
2017-03-04T01:48:40.651Z,991.17
2017-03-04T01:48:50.631Z,991.1
2017-03-04T01:49:00.643Z,991.1
2017-03-04T01:49:10.630Z,991.12
2017-03-04T01:49:20.914Z,991.11
2017-03-04T01:49:30.642Z,991.13
2017-03-04T01:49:40.602Z,991.13
2017-03-04T01:49:50.621Z,991.11
2017-03-04T01:50:00.887Z,991.14
2017-03-04T01:50:10.178Z,991.08
2017-03-04T01:50:20.577Z,991.1
2017-03-04T01:50:30.570Z,991.14
2017-03-04T01:50:40.304Z,991.06
2017-03-04T01:50:50.559Z,991.09
2017-03-04T01:51:00.829Z,991.07
2017-03-04T01:51:10.557Z,991.13
2017-03-04T01:51:20.137Z,991.08
2017-03-04T01:51:30.530Z,991.08
2017-03-04T01:51:40.525Z,991.1
2017-03-04T01:51:50.522Z,991.14
2017-03-04T01:52:00.533Z,991.06
2017-03-04T01:52:10.515Z,991.13
2017-03-04T01:52:20.506Z,991.07
2017-03-04T01:52:31.075Z,991.14
2017-03-04T01:52:40.484Z,991.1
2017-03-04T01:52:50.753Z,991.09
2017-03-04T01:53:00.479Z,991.12
2017-03-04T01:53:10.465Z,991.1
2017-03-04T01:53:20.465Z,991.08
2017-03-04T01:53:30.471Z,991.07
2017-03-04T01:53:40.466Z,991.1
2017-03-04T01:53:50.464Z,991.1
2017-03-04T01:54:00.451Z,991.14
2017-03-04T01:54:10.445Z,991.11
2017-03-04T01:54:20.455Z,991.06
2017-03-04T01:54:30.418Z,991.06
2017-03-04T01:54:40.429Z,991.09
2017-03-04T01:54:50.416Z,991.12
2017-03-04T01:55:00.408Z,991.08
2017-03-04T01:55:10.402Z,991.08
2017-03-04T01:55:20.395Z,991.1
2017-03-04T01:55:30.389Z,991.12
2017-03-04T01:55:40.388Z,991.08
2017-03-04T01:55:50.390Z,991.07
2017-03-04T01:56:00.693Z,991.05
2017-03-04T01:56:10.350Z,991.07
2017-03-04T01:56:19.944Z,991.09
2017-03-04T01:56:30.342Z,991.03
2017-03-04T01:56:40.349Z,991.03
2017-03-04T01:56:50.331Z,991
2017-03-04T01:57:00.330Z,991.07
2017-03-04T01:57:10.618Z,991
2017-03-04T01:57:20.319Z,991.07
2017-03-04T01:57:29.900Z,991.06
2017-03-04T01:57:40.302Z,991.05
2017-03-04T01:57:50.296Z,991.02
2017-03-04T01:57:59.875Z,991.05
2017-03-04T01:58:10.289Z,991.01
2017-03-04T01:58:20.299Z,991.02
2017-03-04T01:58:30.270Z,991.07
2017-03-04T01:58:40.266Z,991.03
2017-03-04T01:58:50.259Z,991.01
2017-03-04T01:58:59.966Z,991.07
2017-03-04T01:59:09.833Z,991.08
2017-03-04T01:59:20.247Z,991.06
2017-03-04T01:59:30.232Z,991.07
2017-03-04T01:59:40.523Z,991.07
2017-03-04T01:59:50.218Z,991.04
2017-03-04T02:00:00.084Z,991.02
2017-03-04T02:00:10.205Z,990.98
2017-03-04T02:00:20.204Z,991.03
2017-03-04T02:00:30.200Z,991.05
2017-03-04T02:00:40.219Z,991.03
2017-03-04T02:00:50.189Z,991.03
2017-03-04T02:00:59.755Z,990.97
2017-03-04T02:01:10.170Z,991.03
2017-03-04T02:01:20.186Z,991.02
2017-03-04T02:01:30.162Z,991.04
2017-03-04T02:01:40.169Z,990.96
2017-03-04T02:01:50.148Z,991
2017-03-04T02:02:00.150Z,991.01
2017-03-04T02:02:10.134Z,991.01
2017-03-04T02:02:20.127Z,990.96
2017-03-04T02:02:30.406Z,990.96
2017-03-04T02:02:40.115Z,991.03
2017-03-04T02:02:50.109Z,991
2017-03-04T02:03:00.108Z,991.02
2017-03-04T02:03:10.093Z,991.01
2017-03-04T02:03:20.082Z,991.01
2017-03-04T02:03:30.097Z,990.98
2017-03-04T02:03:40.102Z,991.01
2017-03-04T02:03:50.064Z,991
2017-03-04T02:04:00.058Z,991.05
2017-03-04T02:04:10.062Z,991
2017-03-04T02:04:20.058Z,991.04
2017-03-04T02:04:30.037Z,990.99
2017-03-04T02:04:40.041Z,990.98
2017-03-04T02:04:50.052Z,991
2017-03-04T02:05:00.028Z,991.01
2017-03-04T02:05:10.018Z,990.99